sensor_id;sensor_type;location;lat;lon;timestamp;P1;durP1;ratioP1;P2;durP2;ratioP2
2638;SDS011;1329;51.384;7.122;2023-06-10T00:02:10;5.43;;;5.00;;
2638;SDS011;1329;51.384;7.122;2023-06-10T00:04:39;5.32;;;4.93;;
2638;SDS011;1329;51.384;7.122;2023-06-10T00:07:06;5.93;;;5.45;;
2638;SDS011;1329;51.384;7.122;2023-06-10T00:09:34;5.95;;;5.38;;
2638;SDS011;1329;51.384;7.122;2023-06-10T00:12:02;5.45;;;5.05;;
2638;SDS011;1329;51.384;7.122;2023-06-10T00:14:31;5.70;;;5.30;;
2638;SDS011;1329;51.384;7.122;2023-06-10T00:17:00;5.97;;;5.38;;
2638;SDS011;1329;51.384;7.122;2023-06-10T00:19:27;6.20;;;5.70;;
2638;SDS011;1329;51.384;7.122;2023-06-10T00:21:55;5.93;;;5.43;;
2638;SDS011;1329;51.384;7.122;2023-06-10T00:24:22;6.05;;;5.55;;
2638;SDS011;1329;51.384;7.122;2023-06-10T00:26:50;5.65;;;5.20;;
2638;SDS011;1329;51.384;7.122;2023-06-10T00:29:17;6.13;;;5.57;;
2638;SDS011;1329;51.384;7.122;2023-06-10T00:31:47;6.50;;;5.90;;
2638;SDS011;1329;51.384;7.122;2023-06-10T00:34:16;5.82;;;5.35;;
2638;SDS011;1329;51.384;7.122;2023-06-10T00:36:43;5.57;;;5.18;;
2638;SDS011;1329;51.384;7.122;2023-06-10T00:39:10;6.05;;;5.45;;
2638;SDS011;1329;51.384;7.122;2023-06-10T00:41:38;6.30;;;5.70;;
2638;SDS011;1329;51.384;7.122;2023-06-10T00:44:05;5.38;;;4.97;;
2638;SDS011;1329;51.384;7.122;2023-06-10T00:46:32;5.97;;;5.45;;
2638;SDS011;1329;51.384;7.122;2023-06-10T00:49:00;5.82;;;5.43;;
2638;SDS011;1329;51.384;7.122;2023-06-10T00:51:28;5.60;;;5.15;;
2638;SDS011;1329;51.384;7.122;2023-06-10T00:53:56;5.82;;;5.22;;
2638;SDS011;1329;51.384;7.122;2023-06-10T00:56:23;5.80;;;5.30;;
2638;SDS011;1329;51.384;7.122;2023-06-10T00:58:51;6.00;;;5.50;;
2638;SDS011;1329;51.384;7.122;2023-06-10T01:01:19;6.00;;;5.50;;
2638;SDS011;1329;51.384;7.122;2023-06-10T01:03:46;6.22;;;5.72;;
2638;SDS011;1329;51.384;7.122;2023-06-10T01:06:14;6.80;;;6.13;;
2638;SDS011;1329;51.384;7.122;2023-06-10T01:09:10;5.63;;;5.22;;
2638;SDS011;1329;51.384;7.122;2023-06-10T01:11:50;6.43;;;5.93;;
2638;SDS011;1329;51.384;7.122;2023-06-10T01:14:25;5.90;;;5.50;;
2638;SDS011;1329;51.384;7.122;2023-06-10T01:16:53;6.55;;;6.05;;
2638;SDS011;1329;51.384;7.122;2023-06-10T01:19:21;5.72;;;5.30;;
2638;SDS011;1329;51.384;7.122;2023-06-10T01:21:50;6.80;;;6.10;;
2638;SDS011;1329;51.384;7.122;2023-06-10T01:24:20;6.18;;;5.68;;
2638;SDS011;1329;51.384;7.122;2023-06-10T01:26:51;5.88;;;5.38;;
2638;SDS011;1329;51.384;7.122;2023-06-10T01:29:28;6.70;;;6.10;;
2638;SDS011;1329;51.384;7.122;2023-06-10T01:32:06;6.45;;;5.95;;
2638;SDS011;1329;51.384;7.122;2023-06-10T01:34:41;6.20;;;5.70;;
2638;SDS011;1329;51.384;7.122;2023-06-10T01:37:13;6.10;;;5.65;;
2638;SDS011;1329;51.384;7.122;2023-06-10T01:39:45;5.90;;;5.50;;
2638;SDS011;1329;51.384;7.122;2023-06-10T01:42:13;6.03;;;5.57;;
2638;SDS011;1329;51.384;7.122;2023-06-10T01:44:45;6.53;;;5.93;;
2638;SDS011;1329;51.384;7.122;2023-06-10T01:47:12;6.82;;;6.22;;
2638;SDS011;1329;51.384;7.122;2023-06-10T01:49:48;6.40;;;5.90;;
2638;SDS011;1329;51.384;7.122;2023-06-10T01:52:17;6.60;;;5.90;;
2638;SDS011;1329;51.384;7.122;2023-06-10T01:54:48;6.38;;;5.78;;
2638;SDS011;1329;51.384;7.122;2023-06-10T01:57:16;6.18;;;5.68;;
2638;SDS011;1329;51.384;7.122;2023-06-10T01:59:44;6.15;;;5.65;;
2638;SDS011;1329;51.384;7.122;2023-06-10T02:02:20;6.28;;;5.78;;
2638;SDS011;1329;51.384;7.122;2023-06-10T02:04:50;6.55;;;6.05;;
2638;SDS011;1329;51.384;7.122;2023-06-10T02:07:19;6.55;;;6.05;;
2638;SDS011;1329;51.384;7.122;2023-06-10T02:09:46;6.90;;;6.35;;
2638;SDS011;1329;51.384;7.122;2023-06-10T02:12:13;6.22;;;5.72;;
2638;SDS011;1329;51.384;7.122;2023-06-10T02:14:40;6.70;;;6.20;;
2638;SDS011;1329;51.384;7.122;2023-06-10T02:17:08;6.20;;;5.70;;
2638;SDS011;1329;51.384;7.122;2023-06-10T02:19:40;6.13;;;5.63;;
2638;SDS011;1329;51.384;7.122;2023-06-10T02:22:09;6.88;;;6.28;;
2638;SDS011;1329;51.384;7.122;2023-06-10T02:24:40;6.65;;;6.05;;
2638;SDS011;1329;51.384;7.122;2023-06-10T02:27:10;6.78;;;6.18;;
2638;SDS011;1329;51.384;7.122;2023-06-10T02:29:38;6.65;;;6.15;;
2638;SDS011;1329;51.384;7.122;2023-06-10T02:32:06;6.45;;;5.95;;
2638;SDS011;1329;51.384;7.122;2023-06-10T02:34:34;6.45;;;5.93;;
2638;SDS011;1329;51.384;7.122;2023-06-10T02:37:02;6.35;;;5.82;;
2638;SDS011;1329;51.384;7.122;2023-06-10T02:39:30;6.78;;;6.18;;
2638;SDS011;1329;51.384;7.122;2023-06-10T02:41:58;6.50;;;5.78;;
2638;SDS011;1329;51.384;7.122;2023-06-10T02:44:25;6.75;;;6.07;;
2638;SDS011;1329;51.384;7.122;2023-06-10T02:46:53;6.85;;;6.15;;
2638;SDS011;1329;51.384;7.122;2023-06-10T02:49:21;6.50;;;6.00;;
2638;SDS011;1329;51.384;7.122;2023-06-10T02:51:49;6.43;;;5.90;;
2638;SDS011;1329;51.384;7.122;2023-06-10T02:54:18;6.80;;;6.30;;
2638;SDS011;1329;51.384;7.122;2023-06-10T02:56:46;6.35;;;5.85;;
2638;SDS011;1329;51.384;7.122;2023-06-10T02:59:15;6.50;;;6.00;;
2638;SDS011;1329;51.384;7.122;2023-06-10T03:01:46;7.03;;;6.43;;
2638;SDS011;1329;51.384;7.122;2023-06-10T03:04:17;6.80;;;6.20;;
2638;SDS011;1329;51.384;7.122;2023-06-10T03:06:45;6.57;;;6.07;;
2638;SDS011;1329;51.384;7.122;2023-06-10T03:09:13;7.03;;;6.43;;
2638;SDS011;1329;51.384;7.122;2023-06-10T03:11:41;6.93;;;6.38;;
2638;SDS011;1329;51.384;7.122;2023-06-10T03:14:08;7.00;;;6.50;;
2638;SDS011;1329;51.384;7.122;2023-06-10T03:16:37;7.00;;;6.40;;
2638;SDS011;1329;51.384;7.122;2023-06-10T03:19:05;6.72;;;6.22;;
2638;SDS011;1329;51.384;7.122;2023-06-10T03:21:36;6.65;;;6.15;;
2638;SDS011;1329;51.384;7.122;2023-06-10T03:24:06;6.78;;;6.25;;
2638;SDS011;1329;51.384;7.122;2023-06-10T03:26:33;6.72;;;6.22;;
2638;SDS011;1329;51.384;7.122;2023-06-10T03:29:01;7.40;;;6.70;;
2638;SDS011;1329;51.384;7.122;2023-06-10T03:31:31;6.70;;;6.20;;
2638;SDS011;1329;51.384;7.122;2023-06-10T03:34:02;6.93;;;6.43;;
2638;SDS011;1329;51.384;7.122;2023-06-10T03:36:33;7.22;;;6.50;;
2638;SDS011;1329;51.384;7.122;2023-06-10T03:39:02;6.80;;;6.20;;
2638;SDS011;1329;51.384;7.122;2023-06-10T03:41:31;7.38;;;6.78;;
2638;SDS011;1329;51.384;7.122;2023-06-10T03:44:00;6.75;;;6.25;;
2638;SDS011;1329;51.384;7.122;2023-06-10T03:46:29;6.90;;;6.30;;
2638;SDS011;1329;51.384;7.122;2023-06-10T03:49:02;7.05;;;6.35;;
2638;SDS011;1329;51.384;7.122;2023-06-10T03:51:34;6.85;;;6.35;;
2638;SDS011;1329;51.384;7.122;2023-06-10T03:54:06;6.93;;;6.38;;
2638;SDS011;1329;51.384;7.122;2023-06-10T03:56:35;7.22;;;6.65;;
2638;SDS011;1329;51.384;7.122;2023-06-10T03:59:03;6.93;;;6.40;;
2638;SDS011;1329;51.384;7.122;2023-06-10T04:01:31;7.10;;;6.50;;
2638;SDS011;1329;51.384;7.122;2023-06-10T04:04:04;6.88;;;6.35;;
2638;SDS011;1329;51.384;7.122;2023-06-10T04:06:31;6.90;;;6.40;;
2638;SDS011;1329;51.384;7.122;2023-06-10T04:09:00;6.95;;;6.35;;
2638;SDS011;1329;51.384;7.122;2023-06-10T04:11:30;7.85;;;7.15;;
2638;SDS011;1329;51.384;7.122;2023-06-10T04:13:58;7.00;;;6.50;;
2638;SDS011;1329;51.384;7.122;2023-06-10T04:16:25;6.97;;;6.47;;
2638;SDS011;1329;51.384;7.122;2023-06-10T04:18:52;7.30;;;6.70;;
2638;SDS011;1329;51.384;7.122;2023-06-10T04:21:20;6.85;;;6.32;;
2638;SDS011;1329;51.384;7.122;2023-06-10T04:23:52;7.28;;;6.68;;
2638;SDS011;1329;51.384;7.122;2023-06-10T04:26:20;6.95;;;6.32;;
2638;SDS011;1329;51.384;7.122;2023-06-10T04:28:54;7.20;;;6.60;;
2638;SDS011;1329;51.384;7.122;2023-06-10T04:31:22;7.82;;;7.07;;
2638;SDS011;1329;51.384;7.122;2023-06-10T04:33:50;8.38;;;7.20;;
2638;SDS011;1329;51.384;7.122;2023-06-10T04:36:28;7.53;;;6.78;;
2638;SDS011;1329;51.384;7.122;2023-06-10T04:38:55;7.32;;;6.72;;
2638;SDS011;1329;51.384;7.122;2023-06-10T04:41:23;7.35;;;6.75;;
2638;SDS011;1329;51.384;7.122;2023-06-10T04:43:52;7.95;;;7.32;;
2638;SDS011;1329;51.384;7.122;2023-06-10T04:46:20;7.32;;;6.80;;
2638;SDS011;1329;51.384;7.122;2023-06-10T04:48:48;7.72;;;7.13;;
2638;SDS011;1329;51.384;7.122;2023-06-10T04:51:16;7.28;;;6.78;;
2638;SDS011;1329;51.384;7.122;2023-06-10T04:53:45;7.60;;;7.00;;
2638;SDS011;1329;51.384;7.122;2023-06-10T04:56:13;7.07;;;6.47;;
2638;SDS011;1329;51.384;7.122;2023-06-10T04:58:41;7.47;;;6.88;;
2638;SDS011;1329;51.384;7.122;2023-06-10T05:01:08;7.80;;;7.20;;
2638;SDS011;1329;51.384;7.122;2023-06-10T05:03:35;7.60;;;6.97;;
2638;SDS011;1329;51.384;7.122;2023-06-10T05:06:03;7.68;;;6.97;;
2638;SDS011;1329;51.384;7.122;2023-06-10T05:08:34;7.75;;;7.15;;
2638;SDS011;1329;51.384;7.122;2023-06-10T05:11:07;7.78;;;7.07;;
2638;SDS011;1329;51.384;7.122;2023-06-10T05:13:41;8.73;;;8.02;;
2638;SDS011;1329;51.384;7.122;2023-06-10T05:16:12;8.27;;;7.57;;
2638;SDS011;1329;51.384;7.122;2023-06-10T05:18:43;8.50;;;7.80;;
2638;SDS011;1329;51.384;7.122;2023-06-10T05:21:10;8.35;;;7.65;;
2638;SDS011;1329;51.384;7.122;2023-06-10T05:23:38;8.73;;;7.95;;
2638;SDS011;1329;51.384;7.122;2023-06-10T05:26:11;8.85;;;8.05;;
2638;SDS011;1329;51.384;7.122;2023-06-10T05:28:39;8.50;;;7.80;;
2638;SDS011;1329;51.384;7.122;2023-06-10T05:31:06;8.63;;;7.93;;
2638;SDS011;1329;51.384;7.122;2023-06-10T05:33:37;9.20;;;8.40;;
2638;SDS011;1329;51.384;7.122;2023-06-10T05:36:05;9.18;;;8.30;;
2638;SDS011;1329;51.384;7.122;2023-06-10T05:38:33;9.07;;;8.20;;
2638;SDS011;1329;51.384;7.122;2023-06-10T05:41:00;8.50;;;7.80;;
2638;SDS011;1329;51.384;7.122;2023-06-10T05:43:32;9.18;;;8.27;;
2638;SDS011;1329;51.384;7.122;2023-06-10T05:45:59;8.82;;;8.13;;
2638;SDS011;1329;51.384;7.122;2023-06-10T05:48:26;8.40;;;7.70;;
2638;SDS011;1329;51.384;7.122;2023-06-10T05:50:58;8.27;;;7.45;;
2638;SDS011;1329;51.384;7.122;2023-06-10T05:53:25;8.43;;;7.72;;
2638;SDS011;1329;51.384;7.122;2023-06-10T05:55:57;8.38;;;7.65;;
2638;SDS011;1329;51.384;7.122;2023-06-10T05:58:24;7.63;;;6.93;;
2638;SDS011;1329;51.384;7.122;2023-06-10T06:00:53;8.18;;;7.47;;
2638;SDS011;1329;51.384;7.122;2023-06-10T06:03:21;7.75;;;7.15;;
2638;SDS011;1329;51.384;7.122;2023-06-10T06:05:55;7.88;;;7.28;;
2638;SDS011;1329;51.384;7.122;2023-06-10T06:08:25;8.40;;;7.60;;
2638;SDS011;1329;51.384;7.122;2023-06-10T06:10:52;7.82;;;7.22;;
2638;SDS011;1329;51.384;7.122;2023-06-10T06:13:19;7.63;;;7.03;;
2638;SDS011;1329;51.384;7.122;2023-06-10T06:15:47;8.07;;;7.38;;
2638;SDS011;1329;51.384;7.122;2023-06-10T06:18:18;8.25;;;7.45;;
2638;SDS011;1329;51.384;7.122;2023-06-10T06:20:45;7.93;;;7.32;;
2638;SDS011;1329;51.384;7.122;2023-06-10T06:23:13;7.97;;;7.28;;
2638;SDS011;1329;51.384;7.122;2023-06-10T06:25:53;7.55;;;6.95;;
2638;SDS011;1329;51.384;7.122;2023-06-10T06:28:20;7.43;;;6.72;;
2638;SDS011;1329;51.384;7.122;2023-06-10T06:30:47;8.20;;;7.50;;
2638;SDS011;1329;51.384;7.122;2023-06-10T06:33:17;7.97;;;7.18;;
2638;SDS011;1329;51.384;7.122;2023-06-10T06:35:45;7.80;;;7.10;;
2638;SDS011;1329;51.384;7.122;2023-06-10T06:38:13;7.22;;;6.63;;
2638;SDS011;1329;51.384;7.122;2023-06-10T06:40:42;7.57;;;6.88;;
2638;SDS011;1329;51.384;7.122;2023-06-10T06:43:13;7.75;;;7.05;;
2638;SDS011;1329;51.384;7.122;2023-06-10T06:45:42;7.70;;;6.93;;
2638;SDS011;1329;51.384;7.122;2023-06-10T06:48:10;7.47;;;6.78;;
2638;SDS011;1329;51.384;7.122;2023-06-10T06:50:39;7.90;;;7.13;;
2638;SDS011;1329;51.384;7.122;2023-06-10T06:53:07;7.88;;;6.72;;
2638;SDS011;1329;51.384;7.122;2023-06-10T06:55:34;8.20;;;6.80;;
2638;SDS011;1329;51.384;7.122;2023-06-10T06:58:02;7.60;;;6.93;;
2638;SDS011;1329;51.384;7.122;2023-06-10T07:00:30;6.72;;;6.13;;
2638;SDS011;1329;51.384;7.122;2023-06-10T07:03:00;6.90;;;6.30;;
2638;SDS011;1329;51.384;7.122;2023-06-10T07:05:28;7.32;;;6.63;;
2638;SDS011;1329;51.384;7.122;2023-06-10T07:07:57;7.15;;;6.55;;
2638;SDS011;1329;51.384;7.122;2023-06-10T07:10:31;7.22;;;6.63;;
2638;SDS011;1329;51.384;7.122;2023-06-10T07:13:00;7.25;;;6.55;;
2638;SDS011;1329;51.384;7.122;2023-06-10T07:15:28;7.60;;;5.78;;
2638;SDS011;1329;51.384;7.122;2023-06-10T07:17:58;6.80;;;6.20;;
2638;SDS011;1329;51.384;7.122;2023-06-10T07:20:30;6.03;;;5.53;;
2638;SDS011;1329;51.384;7.122;2023-06-10T07:22:59;6.32;;;5.72;;
2638;SDS011;1329;51.384;7.122;2023-06-10T07:25:27;6.70;;;6.00;;
2638;SDS011;1329;51.384;7.122;2023-06-10T07:27:54;6.05;;;5.55;;
2638;SDS011;1329;51.384;7.122;2023-06-10T07:30:21;6.00;;;5.50;;
2638;SDS011;1329;51.384;7.122;2023-06-10T07:32:48;6.10;;;5.50;;
2638;SDS011;1329;51.384;7.122;2023-06-10T07:35:18;6.70;;;6.15;;
2638;SDS011;1329;51.384;7.122;2023-06-10T07:37:46;6.13;;;5.53;;
2638;SDS011;1329;51.384;7.122;2023-06-10T07:40:15;6.97;;;5.85;;
2638;SDS011;1329;51.384;7.122;2023-06-10T07:42:42;5.57;;;5.13;;
2638;SDS011;1329;51.384;7.122;2023-06-10T07:45:09;6.47;;;4.88;;
2638;SDS011;1329;51.384;7.122;2023-06-10T07:47:36;5.78;;;5.30;;
2638;SDS011;1329;51.384;7.122;2023-06-10T07:50:04;5.95;;;5.40;;
2638;SDS011;1329;51.384;7.122;2023-06-10T07:52:32;5.43;;;5.00;;
2638;SDS011;1329;51.384;7.122;2023-06-10T07:54:59;5.28;;;4.78;;
2638;SDS011;1329;51.384;7.122;2023-06-10T07:57:28;6.00;;;5.40;;
2638;SDS011;1329;51.384;7.122;2023-06-10T07:59:56;5.70;;;5.20;;
2638;SDS011;1329;51.384;7.122;2023-06-10T08:02:29;5.80;;;5.20;;
2638;SDS011;1329;51.384;7.122;2023-06-10T08:04:56;5.53;;;5.03;;
2638;SDS011;1329;51.384;7.122;2023-06-10T08:07:24;5.20;;;4.80;;
2638;SDS011;1329;51.384;7.122;2023-06-10T08:09:51;5.57;;;5.10;;
2638;SDS011;1329;51.384;7.122;2023-06-10T08:12:18;5.80;;;4.70;;
2638;SDS011;1329;51.384;7.122;2023-06-10T08:14:48;5.38;;;4.97;;
2638;SDS011;1329;51.384;7.122;2023-06-10T08:17:15;5.38;;;4.97;;
2638;SDS011;1329;51.384;7.122;2023-06-10T08:19:42;5.38;;;4.90;;
2638;SDS011;1329;51.384;7.122;2023-06-10T08:22:11;5.53;;;5.00;;
2638;SDS011;1329;51.384;7.122;2023-06-10T08:24:38;5.00;;;4.60;;
2638;SDS011;1329;51.384;7.122;2023-06-10T08:27:05;5.50;;;4.90;;
2638;SDS011;1329;51.384;7.122;2023-06-10T08:29:32;5.43;;;4.93;;
2638;SDS011;1329;51.384;7.122;2023-06-10T08:32:01;5.13;;;4.72;;
2638;SDS011;1329;51.384;7.122;2023-06-10T08:34:29;5.80;;;4.85;;
2638;SDS011;1329;51.384;7.122;2023-06-10T08:36:56;5.53;;;5.13;;
2638;SDS011;1329;51.384;7.122;2023-06-10T08:39:23;4.97;;;4.57;;
2638;SDS011;1329;51.384;7.122;2023-06-10T08:41:51;5.15;;;4.65;;
2638;SDS011;1329;51.384;7.122;2023-06-10T08:44:32;5.82;;;5.20;;
2638;SDS011;1329;51.384;7.122;2023-06-10T08:47:06;5.30;;;4.82;;
2638;SDS011;1329;51.384;7.122;2023-06-10T08:49:42;5.10;;;4.70;;
2638;SDS011;1329;51.384;7.122;2023-06-10T08:52:13;5.95;;;5.35;;
2638;SDS011;1329;51.384;7.122;2023-06-10T08:54:42;5.72;;;5.20;;
2638;SDS011;1329;51.384;7.122;2023-06-10T08:57:15;5.70;;;5.00;;
2638;SDS011;1329;51.384;7.122;2023-06-10T08:59:46;5.93;;;5.43;;
2638;SDS011;1329;51.384;7.122;2023-06-10T09:02:16;5.60;;;4.75;;
2638;SDS011;1329;51.384;7.122;2023-06-10T09:04:45;5.25;;;4.85;;
2638;SDS011;1329;51.384;7.122;2023-06-10T09:07:15;4.78;;;4.40;;
2638;SDS011;1329;51.384;7.122;2023-06-10T09:09:43;5.68;;;5.05;;
2638;SDS011;1329;51.384;7.122;2023-06-10T09:12:11;5.35;;;4.85;;
2638;SDS011;1329;51.384;7.122;2023-06-10T09:14:42;5.60;;;5.10;;
2638;SDS011;1329;51.384;7.122;2023-06-10T09:17:09;5.47;;;5.00;;
2638;SDS011;1329;51.384;7.122;2023-06-10T09:19:39;5.50;;;5.00;;
2638;SDS011;1329;51.384;7.122;2023-06-10T09:22:07;4.80;;;4.40;;
2638;SDS011;1329;51.384;7.122;2023-06-10T09:24:34;5.43;;;4.90;;
2638;SDS011;1329;51.384;7.122;2023-06-10T09:27:03;4.97;;;4.57;;
2638;SDS011;1329;51.384;7.122;2023-06-10T09:29:31;5.40;;;4.60;;
2638;SDS011;1329;51.384;7.122;2023-06-10T09:32:00;4.97;;;4.60;;
2638;SDS011;1329;51.384;7.122;2023-06-10T09:34:27;4.63;;;4.22;;
2638;SDS011;1329;51.384;7.122;2023-06-10T09:36:56;4.80;;;4.30;;
2638;SDS011;1329;51.384;7.122;2023-06-10T09:39:24;5.13;;;4.50;;
2638;SDS011;1329;51.384;7.122;2023-06-10T09:41:51;4.80;;;4.40;;
2638;SDS011;1329;51.384;7.122;2023-06-10T09:44:19;5.15;;;4.65;;
2638;SDS011;1329;51.384;7.122;2023-06-10T09:46:49;4.63;;;4.22;;
2638;SDS011;1329;51.384;7.122;2023-06-10T09:49:17;4.90;;;4.50;;
2638;SDS011;1329;51.384;7.122;2023-06-10T09:51:50;4.60;;;4.30;;
2638;SDS011;1329;51.384;7.122;2023-06-10T09:54:19;5.00;;;4.60;;
2638;SDS011;1329;51.384;7.122;2023-06-10T09:56:47;4.80;;;4.40;;
2638;SDS011;1329;51.384;7.122;2023-06-10T09:59:15;5.30;;;4.50;;
2638;SDS011;1329;51.384;7.122;2023-06-10T10:01:42;4.63;;;4.15;;
2638;SDS011;1329;51.384;7.122;2023-06-10T10:04:09;5.22;;;4.63;;
2638;SDS011;1329;51.384;7.122;2023-06-10T10:06:36;4.40;;;4.10;;
2638;SDS011;1329;51.384;7.122;2023-06-10T10:09:04;5.07;;;4.68;;
2638;SDS011;1329;51.384;7.122;2023-06-10T10:11:34;4.40;;;4.00;;
2638;SDS011;1329;51.384;7.122;2023-06-10T10:14:02;4.43;;;4.03;;
2638;SDS011;1329;51.384;7.122;2023-06-10T10:16:33;4.68;;;4.30;;
2638;SDS011;1329;51.384;7.122;2023-06-10T10:19:07;5.07;;;4.28;;
2638;SDS011;1329;51.384;7.122;2023-06-10T10:21:40;4.60;;;4.15;;
2638;SDS011;1329;51.384;7.122;2023-06-10T10:24:15;4.78;;;4.30;;
2638;SDS011;1329;51.384;7.122;2023-06-10T10:26:47;4.75;;;4.35;;
2638;SDS011;1329;51.384;7.122;2023-06-10T10:29:18;5.07;;;4.57;;
2638;SDS011;1329;51.384;7.122;2023-06-10T10:31:50;4.70;;;4.30;;
2638;SDS011;1329;51.384;7.122;2023-06-10T10:34:21;4.45;;;4.05;;
2638;SDS011;1329;51.384;7.122;2023-06-10T10:36:57;4.70;;;4.28;;
2638;SDS011;1329;51.384;7.122;2023-06-10T10:39:28;4.63;;;4.22;;
2638;SDS011;1329;51.384;7.122;2023-06-10T10:41:57;4.65;;;4.25;;
2638;SDS011;1329;51.384;7.122;2023-06-10T10:44:24;5.55;;;4.53;;
2638;SDS011;1329;51.384;7.122;2023-06-10T10:46:52;4.70;;;4.25;;
2638;SDS011;1329;51.384;7.122;2023-06-10T10:49:20;4.50;;;4.10;;
2638;SDS011;1329;51.384;7.122;2023-06-10T10:51:54;5.20;;;4.80;;
2638;SDS011;1329;51.384;7.122;2023-06-10T10:54:28;5.10;;;4.65;;
2638;SDS011;1329;51.384;7.122;2023-06-10T10:57:14;4.63;;;4.22;;
2638;SDS011;1329;51.384;7.122;2023-06-10T10:59:51;4.65;;;4.25;;
2638;SDS011;1329;51.384;7.122;2023-06-10T11:02:39;4.90;;;4.50;;
2638;SDS011;1329;51.384;7.122;2023-06-10T11:05:08;4.40;;;4.05;;
2638;SDS011;1329;51.384;7.122;2023-06-10T11:07:37;5.03;;;4.63;;
2638;SDS011;1329;51.384;7.122;2023-06-10T11:10:06;5.00;;;4.35;;
2638;SDS011;1329;51.384;7.122;2023-06-10T11:12:41;4.35;;;4.05;;
2638;SDS011;1329;51.384;7.122;2023-06-10T11:15:18;5.05;;;4.57;;
2638;SDS011;1329;51.384;7.122;2023-06-10T11:20:53;4.85;;;4.28;;
2638;SDS011;1329;51.384;7.122;2023-06-10T11:23:26;5.13;;;4.72;;
2638;SDS011;1329;51.384;7.122;2023-06-10T11:26:13;5.30;;;4.80;;
2638;SDS011;1329;51.384;7.122;2023-06-10T11:31:43;5.00;;;4.60;;
2638;SDS011;1329;51.384;7.122;2023-06-10T11:34:15;5.20;;;4.75;;
2638;SDS011;1329;51.384;7.122;2023-06-10T11:36:50;5.18;;;4.72;;
2638;SDS011;1329;51.384;7.122;2023-06-10T11:39:19;5.40;;;4.90;;
2638;SDS011;1329;51.384;7.122;2023-06-10T11:41:49;5.47;;;4.97;;
2638;SDS011;1329;51.384;7.122;2023-06-10T11:44:20;5.18;;;4.78;;
2638;SDS011;1329;51.384;7.122;2023-06-10T11:46:47;5.43;;;5.03;;
2638;SDS011;1329;51.384;7.122;2023-06-10T11:49:16;5.15;;;4.72;;
2638;SDS011;1329;51.384;7.122;2023-06-10T11:51:43;5.63;;;4.75;;
2638;SDS011;1329;51.384;7.122;2023-06-10T11:54:16;5.57;;;4.97;;
2638;SDS011;1329;51.384;7.122;2023-06-10T11:56:48;5.32;;;4.93;;
2638;SDS011;1329;51.384;7.122;2023-06-10T11:59:16;5.07;;;4.68;;
2638;SDS011;1329;51.384;7.122;2023-06-10T12:01:45;5.35;;;4.95;;
2638;SDS011;1329;51.384;7.122;2023-06-10T12:04:12;5.07;;;4.68;;
2638;SDS011;1329;51.384;7.122;2023-06-10T12:06:44;4.97;;;4.50;;
2638;SDS011;1329;51.384;7.122;2023-06-10T12:09:14;5.20;;;4.80;;
2638;SDS011;1329;51.384;7.122;2023-06-10T12:11:45;5.05;;;4.65;;
2638;SDS011;1329;51.384;7.122;2023-06-10T12:14:15;5.10;;;4.70;;
2638;SDS011;1329;51.384;7.122;2023-06-10T12:16:49;4.95;;;4.55;;
2638;SDS011;1329;51.384;7.122;2023-06-10T12:19:17;5.70;;;5.20;;
2638;SDS011;1329;51.384;7.122;2023-06-10T12:21:45;5.22;;;4.78;;
2638;SDS011;1329;51.384;7.122;2023-06-10T12:24:12;6.15;;;5.65;;
2638;SDS011;1329;51.384;7.122;2023-06-10T12:26:40;6.13;;;5.07;;
2638;SDS011;1329;51.384;7.122;2023-06-10T12:29:16;4.80;;;4.40;;
2638;SDS011;1329;51.384;7.122;2023-06-10T12:31:57;5.28;;;4.78;;
2638;SDS011;1329;51.384;7.122;2023-06-10T12:34:35;5.32;;;4.82;;
2638;SDS011;1329;51.384;7.122;2023-06-10T12:37:10;4.78;;;4.43;;
2638;SDS011;1329;51.384;7.122;2023-06-10T12:39:40;5.32;;;4.93;;
2638;SDS011;1329;51.384;7.122;2023-06-10T12:42:08;5.07;;;4.68;;
2638;SDS011;1329;51.384;7.122;2023-06-10T12:44:38;5.35;;;4.85;;
2638;SDS011;1329;51.384;7.122;2023-06-10T12:47:10;4.65;;;4.25;;
2638;SDS011;1329;51.384;7.122;2023-06-10T12:49:38;5.70;;;4.65;;
2638;SDS011;1329;51.384;7.122;2023-06-10T12:52:06;4.72;;;4.32;;
2638;SDS011;1329;51.384;7.122;2023-06-10T12:54:34;5.07;;;4.68;;
2638;SDS011;1329;51.384;7.122;2023-06-10T12:57:01;4.82;;;4.43;;
2638;SDS011;1329;51.384;7.122;2023-06-10T12:59:28;5.15;;;4.75;;
2638;SDS011;1329;51.384;7.122;2023-06-10T13:02:03;5.32;;;4.75;;
2638;SDS011;1329;51.384;7.122;2023-06-10T13:04:31;4.80;;;4.40;;
2638;SDS011;1329;51.384;7.122;2023-06-10T13:06:59;4.70;;;4.30;;
2638;SDS011;1329;51.384;7.122;2023-06-10T13:09:26;4.57;;;4.28;;
2638;SDS011;1329;51.384;7.122;2023-06-10T13:11:53;4.80;;;4.43;;
2638;SDS011;1329;51.384;7.122;2023-06-10T13:14:21;4.88;;;4.45;;
2638;SDS011;1329;51.384;7.122;2023-06-10T13:16:48;5.22;;;4.72;;
2638;SDS011;1329;51.384;7.122;2023-06-10T13:19:20;4.82;;;4.43;;
2638;SDS011;1329;51.384;7.122;2023-06-10T13:21:50;5.03;;;4.63;;
2638;SDS011;1329;51.384;7.122;2023-06-10T13:24:18;6.32;;;4.88;;
2638;SDS011;1329;51.384;7.122;2023-06-10T13:26:46;4.80;;;4.40;;
2638;SDS011;1329;51.384;7.122;2023-06-10T13:29:13;4.93;;;4.50;;
2638;SDS011;1329;51.384;7.122;2023-06-10T13:31:43;5.40;;;4.90;;
2638;SDS011;1329;51.384;7.122;2023-06-10T13:34:10;5.93;;;4.45;;
2638;SDS011;1329;51.384;7.122;2023-06-10T13:36:37;5.00;;;4.60;;
2638;SDS011;1329;51.384;7.122;2023-06-10T13:39:06;4.85;;;4.45;;
2638;SDS011;1329;51.384;7.122;2023-06-10T13:41:33;5.00;;;4.50;;
2638;SDS011;1329;51.384;7.122;2023-06-10T13:44:00;5.07;;;4.60;;
2638;SDS011;1329;51.384;7.122;2023-06-10T13:46:30;4.90;;;4.50;;
2638;SDS011;1329;51.384;7.122;2023-06-10T13:49:01;4.82;;;4.43;;
2638;SDS011;1329;51.384;7.122;2023-06-10T13:51:28;4.82;;;4.38;;
2638;SDS011;1329;51.384;7.122;2023-06-10T13:53:57;4.85;;;4.45;;
2638;SDS011;1329;51.384;7.122;2023-06-10T13:56:26;5.00;;;4.50;;
2638;SDS011;1329;51.384;7.122;2023-06-10T13:58:54;4.60;;;4.20;;
2638;SDS011;1329;51.384;7.122;2023-06-10T14:01:25;5.03;;;4.63;;
2638;SDS011;1329;51.384;7.122;2023-06-10T14:03:53;4.47;;;4.18;;
2638;SDS011;1329;51.384;7.122;2023-06-10T14:06:19;4.55;;;4.20;;
2638;SDS011;1329;51.384;7.122;2023-06-10T14:08:47;5.10;;;4.60;;
2638;SDS011;1329;51.384;7.122;2023-06-10T14:11:16;5.07;;;4.68;;
2638;SDS011;1329;51.384;7.122;2023-06-10T14:13:53;4.53;;;4.13;;
2638;SDS011;1329;51.384;7.122;2023-06-10T14:16:21;4.75;;;4.35;;
2638;SDS011;1329;51.384;7.122;2023-06-10T14:18:48;4.55;;;4.15;;
2638;SDS011;1329;51.384;7.122;2023-06-10T14:21:15;5.07;;;4.30;;
2638;SDS011;1329;51.384;7.122;2023-06-10T14:23:42;5.78;;;4.68;;
2638;SDS011;1329;51.384;7.122;2023-06-10T14:26:10;4.60;;;4.28;;
2638;SDS011;1329;51.384;7.122;2023-06-10T14:28:37;4.82;;;4.38;;
2638;SDS011;1329;51.384;7.122;2023-06-10T14:31:06;4.78;;;4.47;;
2638;SDS011;1329;51.384;7.122;2023-06-10T14:33:33;4.50;;;4.18;;
2638;SDS011;1329;51.384;7.122;2023-06-10T14:36:00;4.70;;;4.30;;
2638;SDS011;1329;51.384;7.122;2023-06-10T14:38:27;4.38;;;4.07;;
2638;SDS011;1329;51.384;7.122;2023-06-10T14:40:54;4.70;;;4.30;;
2638;SDS011;1329;51.384;7.122;2023-06-10T14:43:21;4.63;;;4.22;;
2638;SDS011;1329;51.384;7.122;2023-06-10T14:45:47;4.32;;;4.03;;
2638;SDS011;1329;51.384;7.122;2023-06-10T14:48:17;4.93;;;4.43;;
2638;SDS011;1329;51.384;7.122;2023-06-10T14:50:44;5.35;;;4.57;;
2638;SDS011;1329;51.384;7.122;2023-06-10T14:53:15;4.85;;;4.32;;
2638;SDS011;1329;51.384;7.122;2023-06-10T14:55:42;4.78;;;4.28;;
2638;SDS011;1329;51.384;7.122;2023-06-10T14:58:09;5.10;;;4.20;;
2638;SDS011;1329;51.384;7.122;2023-06-10T15:00:36;4.90;;;3.97;;
2638;SDS011;1329;51.384;7.122;2023-06-10T15:03:03;4.72;;;4.20;;
2638;SDS011;1329;51.384;7.122;2023-06-10T15:05:31;5.15;;;4.50;;
2638;SDS011;1329;51.384;7.122;2023-06-10T15:08:00;4.90;;;4.32;;
2638;SDS011;1329;51.384;7.122;2023-06-10T15:10:27;4.78;;;4.40;;
2638;SDS011;1329;51.384;7.122;2023-06-10T15:12:56;4.50;;;4.10;;
2638;SDS011;1329;51.384;7.122;2023-06-10T15:15:23;4.75;;;4.07;;
2638;SDS011;1329;51.384;7.122;2023-06-10T15:17:51;6.50;;;4.50;;
2638;SDS011;1329;51.384;7.122;2023-06-10T15:20:18;4.47;;;4.07;;
2638;SDS011;1329;51.384;7.122;2023-06-10T15:22:51;4.53;;;4.13;;
2638;SDS011;1329;51.384;7.122;2023-06-10T15:25:26;4.90;;;4.50;;
2638;SDS011;1329;51.384;7.122;2023-06-10T15:27:53;4.45;;;4.15;;
2638;SDS011;1329;51.384;7.122;2023-06-10T15:30:20;4.78;;;4.20;;
2638;SDS011;1329;51.384;7.122;2023-06-10T15:32:47;4.43;;;4.03;;
2638;SDS011;1329;51.384;7.122;2023-06-10T15:35:14;4.43;;;4.05;;